createdAt,value
2023-04-18T00:01:44.731Z,102674.00
2023-04-18T00:04:19.611Z,102667.06
2023-04-18T00:06:50.059Z,102671.25
2023-04-18T00:09:18.971Z,102664.41
2023-04-18T00:11:48.598Z,102666.22
2023-04-18T00:14:17.640Z,102661.03
2023-04-18T00:16:46.953Z,102666.22
2023-04-18T00:19:18.569Z,102667.91
2023-04-18T00:21:47.778Z,102662.69
2023-04-18T00:24:16.768Z,102667.13
2023-04-18T00:26:45.965Z,102669.78
2023-04-18T00:29:15.001Z,102658.56
2023-04-18T00:31:46.524Z,102656.94
2023-04-18T00:34:15.754Z,102668.09
2023-04-18T00:36:46.374Z,102670.69
2023-04-18T00:39:15.446Z,102675.97
2023-04-18T00:41:45.756Z,102666.34
2023-04-18T00:44:14.998Z,102663.78
2023-04-18T00:46:44.056Z,102664.59
2023-04-18T00:49:13.681Z,102667.16
2023-04-18T00:51:43.070Z,102655.16
2023-04-18T00:54:14.616Z,102666.41
2023-04-18T00:56:44.161Z,102662.16
2023-04-18T00:59:15.674Z,102653.56
2023-04-18T01:01:45.361Z,102657.00
2023-04-18T01:04:14.969Z,102650.09
2023-04-18T01:06:45.787Z,102609.66
2023-04-18T01:09:16.446Z,102650.94
2023-04-18T01:11:47.111Z,102654.44
2023-04-18T01:14:20.909Z,102652.78
2023-04-18T01:16:50.083Z,102647.59
2023-04-18T01:19:21.560Z,102654.44
2023-04-18T01:21:53.828Z,102645.88
2023-04-18T01:24:26.916Z,102647.66
2023-04-18T01:26:57.351Z,102654.69
2023-04-18T01:29:29.516Z,102649.50
2023-04-18T01:31:59.117Z,102656.28
2023-04-18T01:34:28.283Z,102659.84
2023-04-18T01:36:57.322Z,102648.59
2023-04-18T01:39:27.854Z,102651.25
2023-04-18T01:41:57.125Z,102541.13
2023-04-18T01:44:26.359Z,102640.06
2023-04-18T01:46:55.665Z,102645.31
2023-04-18T01:49:24.976Z,102653.03
2023-04-18T01:51:53.925Z,102649.63
2023-04-18T01:54:23.864Z,102650.47
2023-04-18T01:56:56.284Z,102642.78
2023-04-18T01:59:25.496Z,102654.84
2023-04-18T02:01:54.720Z,102643.72
2023-04-18T02:04:23.942Z,102647.09
2023-04-18T02:06:53.021Z,102629.88
2023-04-18T02:09:22.568Z,102639.28
2023-04-18T02:11:51.540Z,102635.00
2023-04-18T02:14:22.202Z,102640.19
2023-04-18T02:16:53.731Z,102637.63
2023-04-18T02:19:24.358Z,102607.50
2023-04-18T02:21:53.466Z,102635.94
2023-04-18T02:24:24.963Z,102639.41
2023-04-18T02:26:54.092Z,102637.66
2023-04-18T02:29:24.601Z,102639.44
2023-04-18T02:31:53.622Z,102635.09
2023-04-18T02:34:22.684Z,102635.13
2023-04-18T02:36:51.794Z,102633.38
2023-04-18T02:39:22.284Z,102627.34
2023-04-18T02:41:52.294Z,102626.50
2023-04-18T02:44:21.415Z,102635.09
2023-04-18T02:46:54.432Z,102611.81
2023-04-18T02:49:25.798Z,102599.78
2023-04-18T02:51:56.047Z,102641.13
2023-04-18T02:54:26.274Z,102628.22
2023-04-18T02:57:05.772Z,102638.53
2023-04-18T02:59:55.671Z,102641.97
2023-04-18T03:02:50.986Z,102635.94
2023-04-18T03:05:32.721Z,102624.78
2023-04-18T03:08:04.631Z,102664.41
2023-04-18T03:10:33.934Z,102642.84
2023-04-18T03:13:03.209Z,102642.84
2023-04-18T03:15:33.503Z,102636.84
2023-04-18T03:18:04.660Z,102641.16
2023-04-18T03:20:37.700Z,102641.16
2023-04-18T03:23:09.595Z,102642.88
2023-04-18T03:25:38.647Z,102646.31
2023-04-18T03:28:07.557Z,102645.47
2023-04-18T03:30:37.207Z,102647.16
2023-04-18T03:33:09.731Z,102642.00
2023-04-18T03:35:38.865Z,102645.47
2023-04-18T03:38:07.933Z,102635.09
2023-04-18T03:40:40.086Z,102636.84
2023-04-18T03:43:16.162Z,102641.16
2023-04-18T03:45:47.447Z,102495.59
2023-04-18T03:48:20.473Z,102625.66
2023-04-18T03:50:49.851Z,102648.09
2023-04-18T03:53:19.285Z,102642.03
2023-04-18T03:55:48.212Z,102635.13
2023-04-18T03:58:23.784Z,102644.63
2023-04-18T04:00:54.456Z,102507.66
2023-04-18T04:03:27.986Z,102654.09
2023-04-18T04:05:58.193Z,102654.97
2023-04-18T04:08:28.293Z,102648.94
2023-04-18T04:10:58.242Z,102657.56
2023-04-18T04:13:27.497Z,102664.44
2023-04-18T04:15:59.335Z,102650.66
2023-04-18T04:18:31.298Z,102652.38
2023-04-18T04:21:02.684Z,102652.38
2023-04-18T04:23:49.057Z,102658.41
2023-04-18T04:26:32.521Z,102661.84
2023-04-18T04:29:13.929Z,102654.09
2023-04-18T04:31:45.252Z,102661.84
2023-04-18T04:38:42.129Z,102661.00
2023-04-18T04:41:11.985Z,102667.88
2023-04-18T04:43:43.616Z,102666.16
2023-04-18T04:46:16.116Z,102662.69
2023-04-18T04:48:45.579Z,102668.72
2023-04-18T04:51:19.310Z,102664.44
2023-04-18T04:53:50.273Z,102669.59
2023-04-18T04:56:23.060Z,102666.19
2023-04-18T04:58:53.613Z,102648.09
2023-04-18T05:01:33.487Z,102662.69
2023-04-18T05:04:02.502Z,102667.03
2023-04-18T05:06:31.931Z,102666.16
2023-04-18T05:09:05.531Z,102667.91
2023-04-18T05:11:34.648Z,102666.16
2023-04-18T05:14:03.676Z,102667.03
2023-04-18T05:16:32.964Z,102670.47
2023-04-18T05:19:02.028Z,102668.75
2023-04-18T05:21:31.410Z,102671.34
2023-04-18T05:24:00.737Z,102667.03
2023-04-18T05:26:33.728Z,102673.03
2023-04-18T05:29:04.743Z,102678.22
2023-04-18T05:31:35.426Z,102677.34
2023-04-18T05:34:05.953Z,102681.69
2023-04-18T05:36:35.260Z,102684.28
2023-04-18T05:39:05.573Z,102717.03
2023-04-18T05:41:37.553Z,102661.84
2023-04-18T05:44:08.136Z,102686.84
2023-04-18T05:46:39.150Z,102675.66
2023-04-18T05:49:10.144Z,102682.53
2023-04-18T05:51:42.363Z,102693.75
2023-04-18T05:54:13.329Z,102698.91
2023-04-18T05:56:45.511Z,102698.91
2023-04-18T05:59:16.131Z,102698.91
2023-04-18T06:01:46.469Z,102698.91
2023-04-18T06:04:17.641Z,102710.09
2023-04-18T06:06:47.910Z,102704.09
2023-04-18T06:09:17.018Z,102710.09
2023-04-18T06:11:47.667Z,102710.13
2023-04-18T06:14:16.862Z,102706.66
2023-04-18T06:16:46.030Z,102560.16
2023-04-18T06:19:17.414Z,102700.63
2023-04-18T06:21:49.390Z,102698.03
2023-04-18T06:24:20.283Z,102703.22
2023-04-18T06:26:52.265Z,102712.69
2023-04-18T06:29:23.797Z,102709.25
2023-04-18T06:31:54.693Z,102680.84
2023-04-18T06:34:25.693Z,102675.66
2023-04-18T06:36:57.288Z,102706.69
2023-04-18T06:39:28.044Z,102704.97
2023-04-18T06:41:59.452Z,102704.06
2023-04-18T06:44:32.314Z,102708.38
2023-04-18T06:47:01.775Z,102677.38
2023-04-18T06:49:31.535Z,102598.97
2023-04-18T06:52:02.586Z,102704.03
2023-04-18T06:54:33.803Z,102709.25
2023-04-18T06:57:05.667Z,102711.84
2023-04-18T06:59:37.618Z,102717.03
2023-04-18T07:02:08.017Z,102717.84
2023-04-18T07:04:37.285Z,102720.47
2023-04-18T07:07:06.411Z,102710.97
2023-04-18T07:09:35.487Z,102711.00
2023-04-18T07:12:06.413Z,102713.56
2023-04-18T07:14:35.164Z,102719.63
2023-04-18T07:17:03.980Z,102686.81
2023-04-18T07:19:32.984Z,102717.00
2023-04-18T07:22:01.817Z,102723.00
2023-04-18T07:24:31.962Z,102727.25
2023-04-18T07:27:01.401Z,102722.94
2023-04-18T07:29:31.704Z,102728.09
2023-04-18T07:32:00.484Z,102724.63
2023-04-18T07:34:29.715Z,102714.28
2023-04-18T07:36:58.631Z,102718.63
2023-04-18T07:39:27.387Z,102723.69
2023-04-18T07:41:56.077Z,102722.69
2023-04-18T07:44:25.414Z,102710.50
2023-04-18T07:46:56.074Z,102717.41
2023-04-18T07:49:28.141Z,102720.06
2023-04-18T07:51:57.454Z,102701.88
2023-04-18T07:54:26.551Z,102717.50
2023-04-18T07:56:55.567Z,102718.22
2023-04-18T07:59:24.526Z,102716.44
2023-04-18T08:01:53.683Z,102714.63
2023-04-18T08:04:24.626Z,102703.44
2023-04-18T08:06:56.876Z,102703.41
2023-04-18T08:09:27.134Z,102715.41
2023-04-18T08:11:59.064Z,102710.13
2023-04-18T08:14:29.610Z,102709.25
2023-04-18T08:16:59.903Z,102717.97
2023-04-18T08:19:31.890Z,102704.22
2023-04-18T08:22:10.993Z,102564.84
2023-04-18T08:24:57.493Z,102707.78
2023-04-18T08:27:35.131Z,102711.16
2023-04-18T08:30:06.358Z,102719.56
2023-04-18T08:32:38.700Z,102710.03
2023-04-18T08:35:11.393Z,102714.13
2023-04-18T08:37:41.500Z,102711.56
2023-04-18T08:40:12.254Z,102701.16
2023-04-18T08:42:45.894Z,102703.63
2023-04-18T08:45:16.823Z,102685.16
2023-04-18T08:47:47.509Z,102694.97
2023-04-18T08:50:18.534Z,102694.19
2023-04-18T08:52:48.864Z,102698.06
2023-04-18T08:55:19.155Z,102704.34
2023-04-18T08:57:50.619Z,102694.59
2023-04-18T09:00:20.578Z,102663.22
2023-04-18T09:02:55.178Z,102676.72
2023-04-18T09:05:27.668Z,102693.16
2023-04-18T09:07:57.590Z,102692.28
2023-04-18T09:10:31.045Z,102695.41
2023-04-18T09:13:03.422Z,102672.09
2023-04-18T09:15:35.767Z,102661.84
2023-04-18T09:18:11.394Z,102691.25
2023-04-18T09:20:42.685Z,102691.34
2023-04-18T09:23:14.841Z,102666.06
2023-04-18T09:25:46.436Z,102687.22
2023-04-18T09:28:27.146Z,102533.91
2023-04-18T09:31:00.218Z,102686.34
2023-04-18T09:33:32.636Z,102687.47
2023-04-18T09:36:19.557Z,102692.25
2023-04-18T09:38:49.440Z,102690.25
2023-04-18T09:41:21.234Z,102677.47
2023-04-18T09:43:50.649Z,102682.00
2023-04-18T09:46:21.746Z,102677.09
2023-04-18T09:48:50.690Z,102664.78
2023-04-18T09:51:24.103Z,102681.53
2023-04-18T09:53:55.500Z,102676.22
2023-04-18T09:56:26.609Z,102671.59
2023-04-18T09:58:58.363Z,102666.53
2023-04-18T10:01:30.878Z,102667.38
2023-04-18T10:04:04.223Z,102662.41
2023-04-18T10:06:38.515Z,102641.78
2023-04-18T10:09:09.762Z,102670.72
2023-04-18T10:11:38.696Z,102664.53
2023-04-18T10:14:10.960Z,102660.91
2023-04-18T10:16:40.810Z,102653.34
2023-04-18T10:19:26.338Z,102668.09
2023-04-18T10:21:59.843Z,102659.00
2023-04-18T10:24:53.123Z,102661.03
2023-04-18T10:27:56.410Z,102648.78
2023-04-18T10:30:56.367Z,102651.81
2023-04-18T10:33:33.660Z,102661.41
2023-04-18T10:36:14.908Z,102664.44
2023-04-18T10:38:49.628Z,102664.50
2023-04-18T10:41:21.325Z,102656.25
2023-04-18T10:44:16.242Z,102659.72
2023-04-18T10:47:24.478Z,102662.88
2023-04-18T10:50:01.445Z,102657.19
2023-04-18T10:52:30.955Z,102658.56
2023-04-18T10:55:14.869Z,102657.16
2023-04-18T10:57:45.822Z,102646.34
2023-04-18T11:00:16.978Z,102651.28
2023-04-18T11:02:55.961Z,102650.84
2023-04-18T11:05:27.938Z,102649.25
2023-04-18T11:07:59.125Z,102652.97
2023-04-18T11:10:29.864Z,102650.28
2023-04-18T11:13:04.669Z,102654.34
2023-04-18T11:15:40.003Z,102651.81
2023-04-18T11:18:10.676Z,102642.41
2023-04-18T11:20:41.102Z,102648.31
2023-04-18T11:23:18.342Z,102645.50
2023-04-18T11:25:52.254Z,102642.94
2023-04-18T11:28:24.997Z,102645.09
2023-04-18T11:30:58.733Z,102642.97
2023-04-18T11:33:29.996Z,102645.72
2023-04-18T11:36:01.635Z,102648.31
2023-04-18T11:38:33.615Z,102646.13
2023-04-18T11:41:05.204Z,102640.41
2023-04-18T11:43:34.362Z,102588.22
2023-04-18T11:46:03.540Z,102643.63
2023-04-18T11:48:36.449Z,102644.13
2023-04-18T11:51:06.584Z,102648.31
2023-04-18T11:53:36.671Z,102640.03
2023-04-18T11:56:08.155Z,102644.34
2023-04-18T11:58:38.170Z,102649.22
2023-04-18T12:01:18.908Z,102636.75
2023-04-18T12:04:03.314Z,102641.03
2023-04-18T12:06:49.284Z,102646.66
2023-04-18T12:09:21.717Z,102645.03
2023-04-18T12:12:03.386Z,102638.00
2023-04-18T12:14:33.673Z,102641.41
2023-04-18T12:17:06.840Z,102636.72
2023-04-18T12:19:37.620Z,102635.19
2023-04-18T12:22:09.965Z,102633.56
2023-04-18T12:24:40.336Z,102617.63
2023-04-18T12:27:12.390Z,102645.13
2023-04-18T12:29:43.177Z,102636.06
2023-04-18T12:32:13.375Z,102629.03
2023-04-18T12:34:44.234Z,102633.13
2023-04-18T12:37:15.009Z,102623.22
2023-04-18T12:39:48.056Z,102627.66
2023-04-18T12:42:18.866Z,102635.72
2023-04-18T12:44:48.131Z,102628.56
2023-04-18T12:47:17.299Z,102629.09
2023-04-18T12:49:46.415Z,102629.44
2023-04-18T12:52:18.114Z,102620.34
2023-04-18T12:54:47.274Z,102590.69
2023-04-18T12:57:20.606Z,102634.69
2023-04-18T12:59:49.622Z,102631.38
2023-04-18T13:02:18.653Z,102635.78
2023-04-18T13:04:47.964Z,102633.88
2023-04-18T13:07:17.257Z,102624.41
2023-04-18T13:09:47.450Z,102631.31
2023-04-18T13:12:16.510Z,102626.16
2023-04-18T13:14:48.219Z,102627.34
2023-04-18T13:17:17.248Z,102620.50
2023-04-18T13:19:48.795Z,102622.56
2023-04-18T13:22:19.141Z,102617.75
2023-04-18T13:24:48.929Z,102614.09
2023-04-18T13:27:18.249Z,102613.19
2023-04-18T13:29:50.817Z,102609.47
2023-04-18T13:32:20.079Z,102615.97
2023-04-18T13:34:49.535Z,102625.72
2023-04-18T13:37:18.693Z,102622.38
2023-04-18T13:39:49.838Z,102616.84
2023-04-18T13:42:19.550Z,102617.84
2023-04-18T13:44:49.598Z,102607.41
2023-04-18T13:47:20.194Z,102610.66
2023-04-18T13:49:49.322Z,102616.53
2023-04-18T13:52:18.765Z,102618.72
2023-04-18T13:54:48.254Z,102615.66
2023-04-18T13:57:17.439Z,102615.66
2023-04-18T13:59:46.391Z,102619.06
2023-04-18T14:02:19.252Z,102624.22
2023-04-18T14:04:48.491Z,102614.31
2023-04-18T14:07:17.822Z,102612.38
2023-04-18T14:09:48.335Z,102611.81
2023-04-18T14:12:17.429Z,102600.59
2023-04-18T14:14:46.596Z,102576.03
2023-04-18T14:17:15.705Z,102587.53
2023-04-18T14:19:46.485Z,102609.28
2023-04-18T14:22:15.760Z,102608.91
2023-04-18T14:24:44.870Z,102606.66
2023-04-18T14:27:16.393Z,102598.81
2023-04-18T14:29:45.469Z,102581.81
2023-04-18T14:32:16.744Z,102603.59
2023-04-18T14:34:47.423Z,102604.31
2023-04-18T14:37:17.672Z,102585.75
2023-04-18T14:39:47.048Z,102598.72
2023-04-18T14:42:17.178Z,102601.91
2023-04-18T14:44:48.461Z,102603.63
2023-04-18T14:47:20.046Z,102593.28
2023-04-18T14:49:50.662Z,102587.28
2023-04-18T14:52:19.986Z,102590.28
2023-04-18T14:54:49.254Z,102581.94
2023-04-18T14:57:18.235Z,102585.91
2023-04-18T14:59:47.278Z,102575.28
2023-04-18T15:02:16.533Z,102571.41
2023-04-18T15:04:45.832Z,102586.69
2023-04-18T15:07:17.817Z,102580.38
2023-04-18T15:09:47.004Z,102582.78
2023-04-18T15:12:16.048Z,102577.19
2023-04-18T15:14:45.193Z,102578.59
2023-04-18T15:17:14.330Z,102572.63
2023-04-18T15:19:43.405Z,102574.03
2023-04-18T15:22:12.645Z,102580.16
2023-04-18T15:24:43.250Z,102569.50
2023-04-18T15:27:12.800Z,102572.06
2023-04-18T15:29:41.792Z,102572.38
2023-04-18T15:32:11.586Z,102567.50
2023-04-18T15:34:40.822Z,102566.41
2023-04-18T15:37:09.915Z,102559.84
2023-04-18T15:39:39.113Z,102559.19
2023-04-18T15:42:09.193Z,102564.31
2023-04-18T15:44:38.011Z,102564.78
2023-04-18T15:47:09.016Z,102473.00
2023-04-18T15:49:39.897Z,102561.16
2023-04-18T15:52:08.599Z,102561.06
2023-04-18T15:54:42.322Z,102560.38
2023-04-18T15:57:21.117Z,102559.94
2023-04-18T15:59:50.316Z,102542.97
2023-04-18T16:02:21.564Z,102556.25
2023-04-18T16:04:51.503Z,102550.03
2023-04-18T16:07:21.011Z,102552.16
2023-04-18T16:09:50.405Z,102554.09
2023-04-18T16:12:21.912Z,102554.03
2023-04-18T16:14:51.986Z,102555.13
2023-04-18T16:17:21.432Z,102550.09
2023-04-18T16:19:53.148Z,102550.13
2023-04-18T16:22:23.148Z,102553.41
2023-04-18T16:24:53.075Z,102546.22
2023-04-18T16:27:24.259Z,102549.63
2023-04-18T16:29:54.089Z,102548.41
2023-04-18T16:32:24.179Z,102547.19
2023-04-18T16:34:53.706Z,102532.84
2023-04-18T16:37:23.058Z,102544.44
2023-04-18T16:39:58.079Z,102548.91
2023-04-18T16:42:28.971Z,102548.28
2023-04-18T16:44:58.723Z,102519.91
2023-04-18T16:47:28.022Z,102547.00
2023-04-18T16:49:57.173Z,102546.88
2023-04-18T16:52:26.602Z,102541.56
2023-04-18T16:54:56.013Z,102548.09
2023-04-18T16:57:25.237Z,102512.00
2023-04-18T16:59:56.175Z,102541.47
2023-04-18T17:02:27.796Z,102536.91
2023-04-18T17:04:57.916Z,102533.78
2023-04-18T17:07:29.678Z,102540.69
2023-04-18T17:10:01.755Z,102535.00
2023-04-18T17:12:32.329Z,102541.66
2023-04-18T17:15:06.181Z,102539.78
2023-04-18T17:17:36.294Z,102538.66
2023-04-18T17:20:08.360Z,102531.47
2023-04-18T17:22:39.184Z,102544.69
2023-04-18T17:25:09.279Z,102532.59
2023-04-18T17:27:40.607Z,102540.13
2023-04-18T17:30:12.181Z,102539.94
2023-04-18T17:32:45.631Z,102551.16
2023-04-18T17:35:15.665Z,102545.94
2023-04-18T17:37:45.047Z,102549.47
2023-04-18T17:40:14.528Z,102544.84
2023-04-18T17:42:43.387Z,102542.47
2023-04-18T17:45:13.462Z,102542.34
2023-04-18T17:47:42.524Z,102509.94
2023-04-18T17:50:12.559Z,102547.28
2023-04-18T17:52:42.395Z,102547.75
2023-04-18T17:55:12.139Z,102541.84
2023-04-18T17:57:41.399Z,102553.03
2023-04-18T18:00:13.515Z,102554.78
2023-04-18T18:02:44.293Z,102556.13
2023-04-18T18:05:14.577Z,102544.00
2023-04-18T18:07:48.221Z,102552.44
2023-04-18T18:10:20.603Z,102559.78
2023-04-18T18:12:50.257Z,102547.00
2023-04-18T18:15:22.128Z,102556.91
2023-04-18T18:17:53.380Z,102559.50
2023-04-18T18:20:23.070Z,102448.69
2023-04-18T18:22:52.877Z,102556.53
2023-04-18T18:25:22.510Z,102558.34
2023-04-18T18:27:51.644Z,102565.94
2023-04-18T18:30:21.368Z,102567.78
2023-04-18T18:32:50.933Z,102567.09
2023-04-18T18:35:22.111Z,102563.25
2023-04-18T18:37:51.816Z,102562.06
2023-04-18T18:40:21.519Z,102559.50
2023-04-18T18:42:51.802Z,102564.81
2023-04-18T18:45:21.541Z,102569.50
2023-04-18T18:47:51.437Z,102555.06
2023-04-18T18:50:22.301Z,102565.56
2023-04-18T18:52:51.445Z,102569.50
2023-04-18T18:55:22.315Z,102563.63
2023-04-18T18:57:51.715Z,102575.41
2023-04-18T19:00:21.143Z,102573.44
2023-04-18T19:02:50.552Z,102578.72
2023-04-18T19:05:19.723Z,102580.47
2023-04-18T19:07:51.510Z,102588.44
2023-04-18T19:10:23.390Z,102593.72
2023-04-18T19:12:52.660Z,102587.00
2023-04-18T19:15:21.918Z,102576.56
2023-04-18T19:17:51.411Z,102604.91
2023-04-18T19:20:21.218Z,102602.19
2023-04-18T19:22:51.662Z,102607.16
2023-04-18T19:25:20.653Z,102585.00
2023-04-18T19:27:49.868Z,102607.50
2023-04-18T19:30:19.126Z,102497.94
2023-04-18T19:32:48.421Z,102606.72
2023-04-18T19:35:17.837Z,102617.03
2023-04-18T19:37:48.256Z,102604.09
2023-04-18T19:40:19.627Z,102609.91
2023-04-18T19:42:49.109Z,102610.09
2023-04-18T19:45:21.202Z,102627.38
2023-04-18T19:47:50.381Z,102621.22
2023-04-18T19:50:20.200Z,102628.22
2023-04-18T19:52:51.892Z,102627.56
2023-04-18T19:55:23.188Z,102629.56
2023-04-18T19:57:56.914Z,102597.03
2023-04-18T20:00:26.226Z,102634.13
2023-04-18T20:02:59.036Z,102621.34
2023-04-18T20:05:28.465Z,102629.09
2023-04-18T20:07:57.824Z,102631.72
2023-04-18T20:10:30.173Z,102630.97
2023-04-18T20:12:59.660Z,102637.84
2023-04-18T20:15:30.736Z,102633.03
2023-04-18T20:18:00.984Z,102605.63
2023-04-18T20:20:30.313Z,102641.81
2023-04-18T20:23:00.140Z,102627.22
2023-04-18T20:25:31.767Z,102638.47
2023-04-18T20:28:00.798Z,102641.03
2023-04-18T20:30:30.964Z,102638.78
2023-04-18T20:33:00.178Z,102640.34
2023-04-18T20:35:29.877Z,102644.78
2023-04-18T20:38:00.398Z,102627.63
2023-04-18T20:40:30.855Z,102649.47
2023-04-18T20:43:03.148Z,102653.03
2023-04-18T20:45:34.806Z,102644.59
2023-04-18T20:48:04.111Z,102651.34
2023-04-18T20:50:33.300Z,102654.22
2023-04-18T20:53:04.434Z,102663.81
2023-04-18T20:55:35.415Z,102661.31
2023-04-18T20:58:04.671Z,102663.00
2023-04-18T21:00:33.818Z,102657.69
2023-04-18T21:03:05.496Z,102669.00
2023-04-18T21:05:34.629Z,102668.97
2023-04-18T21:08:03.905Z,102652.63
2023-04-18T21:10:34.698Z,102665.44
2023-04-18T21:13:03.753Z,102665.66
2023-04-18T21:15:32.955Z,102675.16
2023-04-18T21:18:02.115Z,102661.47
2023-04-18T21:20:31.196Z,102654.50
2023-04-18T21:23:00.169Z,102570.25
2023-04-18T21:25:29.235Z,102668.41
2023-04-18T21:28:01.889Z,102670.91
2023-04-18T21:30:31.008Z,102674.41
2023-04-18T21:32:59.905Z,102668.47
2023-04-18T21:35:29.867Z,102681.28
2023-04-18T21:37:59.468Z,102669.31
2023-04-18T21:40:30.774Z,102684.06
2023-04-18T21:43:01.298Z,102680.63
2023-04-18T21:45:30.572Z,102687.38
2023-04-18T21:47:59.649Z,102680.63
2023-04-18T21:50:31.160Z,102684.06
2023-04-18T21:53:00.105Z,102687.00
2023-04-18T21:55:29.267Z,102682.94
2023-04-18T21:57:58.504Z,102684.66
2023-04-18T22:00:28.706Z,102689.75
2023-04-18T22:02:58.157Z,102688.88
2023-04-18T22:05:28.038Z,102678.44
2023-04-18T22:07:58.687Z,102682.72
2023-04-18T22:10:27.955Z,102681.28
2023-04-18T22:12:57.711Z,102682.22
2023-04-18T22:15:28.251Z,102690.88
2023-04-18T22:17:58.028Z,102696.84
2023-04-18T22:20:27.543Z,102686.53
2023-04-18T22:22:56.462Z,102682.38
2023-04-18T22:25:25.923Z,102663.41
2023-04-18T22:27:54.947Z,102684.31
2023-04-18T22:30:24.203Z,102685.09
2023-04-18T22:32:54.761Z,102570.69
2023-04-18T22:35:25.062Z,102676.53
2023-04-18T22:37:55.262Z,102672.28
2023-04-18T22:40:25.812Z,102684.28
2023-04-18T22:42:56.198Z,102689.47
2023-04-18T22:45:26.628Z,102684.28
2023-04-18T22:47:58.517Z,102673.31
2023-04-18T22:50:30.562Z,102692.06
2023-04-18T22:53:01.011Z,102689.63
2023-04-18T22:55:31.447Z,102675.00
2023-04-18T22:58:05.400Z,102692.28
2023-04-18T23:00:38.798Z,102690.47
2023-04-18T23:03:10.355Z,102675.03
2023-04-18T23:05:42.969Z,102688.72
2023-04-18T23:08:14.174Z,102698.25
2023-04-18T23:10:45.379Z,102688.84
2023-04-18T23:13:15.839Z,102693.03
2023-04-18T23:15:46.106Z,102716.50
2023-04-18T23:18:16.640Z,102677.66
2023-04-18T23:20:46.145Z,102693.94
2023-04-18T23:23:15.302Z,102708.66
2023-04-18T23:25:44.264Z,102673.41
2023-04-18T23:28:13.757Z,102700.88
2023-04-18T23:30:43.829Z,102697.53
2023-04-18T23:33:13.469Z,102695.88
2023-04-18T23:35:44.332Z,102723.47
2023-04-18T23:38:13.636Z,102669.13
2023-04-18T23:40:42.819Z,102674.31
2023-04-18T23:43:11.909Z,102696.63
2023-04-18T23:45:40.963Z,102694.16
2023-04-18T23:48:10.011Z,102692.41
2023-04-18T23:50:48.263Z,102696.78
2023-04-18T23:53:17.709Z,102700.28
2023-04-18T23:55:49.461Z,102695.06
2023-04-18T23:58:19.921Z,102695.94
